sensor_id;sensor_type;location;lat;lon;timestamp;P1;durP1;ratioP1;P2;durP2;ratioP2
49071;SDS011;74284;52.610;10.236;2024-01-30T00:00:40;17.77;;;12.10;;
49071;SDS011;74284;52.610;10.236;2024-01-30T00:03:06;17.73;;;11.52;;
49071;SDS011;74284;52.610;10.236;2024-01-30T00:07:57;16.73;;;10.95;;
49071;SDS011;74284;52.610;10.236;2024-01-30T00:10:22;15.35;;;11.20;;
49071;SDS011;74284;52.610;10.236;2024-01-30T00:12:47;16.73;;;11.45;;
49071;SDS011;74284;52.610;10.236;2024-01-30T00:15:12;21.10;;;12.52;;
49071;SDS011;74284;52.610;10.236;2024-01-30T00:17:38;19.35;;;12.00;;
49071;SDS011;74284;52.610;10.236;2024-01-30T00:20:04;16.48;;;11.63;;
49071;SDS011;74284;52.610;10.236;2024-01-30T00:22:34;18.13;;;12.70;;
49071;SDS011;74284;52.610;10.236;2024-01-30T00:24:59;18.60;;;13.05;;
49071;SDS011;74284;52.610;10.236;2024-01-30T00:27:25;19.52;;;12.40;;
49071;SDS011;74284;52.610;10.236;2024-01-30T00:29:51;17.83;;;12.73;;
49071;SDS011;74284;52.610;10.236;2024-01-30T00:32:16;19.90;;;12.20;;
49071;SDS011;74284;52.610;10.236;2024-01-30T00:34:44;18.15;;;12.60;;
49071;SDS011;74284;52.610;10.236;2024-01-30T00:37:09;17.97;;;12.43;;
49071;SDS011;74284;52.610;10.236;2024-01-30T00:39:34;18.00;;;12.07;;
49071;SDS011;74284;52.610;10.236;2024-01-30T00:42:00;17.67;;;11.93;;
49071;SDS011;74284;52.610;10.236;2024-01-30T00:44:25;18.63;;;12.30;;
49071;SDS011;74284;52.610;10.236;2024-01-30T00:46:50;18.95;;;12.65;;
49071;SDS011;74284;52.610;10.236;2024-01-30T00:49:15;19.63;;;12.85;;
49071;SDS011;74284;52.610;10.236;2024-01-30T00:51:41;18.40;;;12.90;;
49071;SDS011;74284;52.610;10.236;2024-01-30T00:54:06;20.60;;;12.30;;
49071;SDS011;74284;52.610;10.236;2024-01-30T00:56:31;17.35;;;12.10;;
49071;SDS011;74284;52.610;10.236;2024-01-30T00:58:57;18.20;;;12.60;;
49071;SDS011;74284;52.610;10.236;2024-01-30T01:01:22;18.65;;;12.50;;
49071;SDS011;74284;52.610;10.236;2024-01-30T01:03:48;18.23;;;12.63;;
49071;SDS011;74284;52.610;10.236;2024-01-30T01:06:13;20.83;;;13.00;;
49071;SDS011;74284;52.610;10.236;2024-01-30T01:08:39;19.70;;;12.57;;
49071;SDS011;74284;52.610;10.236;2024-01-30T01:11:04;19.45;;;12.57;;
49071;SDS011;74284;52.610;10.236;2024-01-30T01:13:29;18.35;;;12.07;;
49071;SDS011;74284;52.610;10.236;2024-01-30T01:15:55;20.40;;;12.68;;
49071;SDS011;74284;52.610;10.236;2024-01-30T01:18:20;17.58;;;12.18;;
49071;SDS011;74284;52.610;10.236;2024-01-30T01:20:45;17.00;;;11.50;;
49071;SDS011;74284;52.610;10.236;2024-01-30T01:23:11;16.92;;;12.02;;
49071;SDS011;74284;52.610;10.236;2024-01-30T01:25:36;20.90;;;11.77;;
49071;SDS011;74284;52.610;10.236;2024-01-30T01:28:01;18.30;;;11.48;;
49071;SDS011;74284;52.610;10.236;2024-01-30T01:30:27;17.98;;;12.55;;
49071;SDS011;74284;52.610;10.236;2024-01-30T01:32:54;17.88;;;12.00;;
49071;SDS011;74284;52.610;10.236;2024-01-30T01:35:25;17.45;;;11.98;;
49071;SDS011;74284;52.610;10.236;2024-01-30T01:37:51;16.92;;;11.82;;
49071;SDS011;74284;52.610;10.236;2024-01-30T01:40:20;17.50;;;12.15;;
49071;SDS011;74284;52.610;10.236;2024-01-30T01:42:47;19.88;;;12.43;;
49071;SDS011;74284;52.610;10.236;2024-01-30T01:45:15;18.45;;;11.98;;
49071;SDS011;74284;52.610;10.236;2024-01-30T01:47:41;21.27;;;11.37;;
49071;SDS011;74284;52.610;10.236;2024-01-30T01:50:07;14.57;;;11.27;;
49071;SDS011;74284;52.610;10.236;2024-01-30T01:52:33;17.30;;;11.63;;
49071;SDS011;74284;52.610;10.236;2024-01-30T01:57:24;15.35;;;10.80;;
49071;SDS011;74284;52.610;10.236;2024-01-30T01:59:50;20.45;;;12.48;;
49071;SDS011;74284;52.610;10.236;2024-01-30T02:02:15;20.70;;;13.25;;
49071;SDS011;74284;52.610;10.236;2024-01-30T02:04:44;21.17;;;12.55;;
49071;SDS011;74284;52.610;10.236;2024-01-30T02:07:10;18.88;;;12.38;;
49071;SDS011;74284;52.610;10.236;2024-01-30T02:09:35;17.92;;;11.85;;
49071;SDS011;74284;52.610;10.236;2024-01-30T02:12:01;17.88;;;11.50;;
49071;SDS011;74284;52.610;10.236;2024-01-30T02:14:26;18.70;;;11.20;;
49071;SDS011;74284;52.610;10.236;2024-01-30T02:16:51;17.70;;;12.48;;
49071;SDS011;74284;52.610;10.236;2024-01-30T02:19:17;16.77;;;11.50;;
49071;SDS011;74284;52.610;10.236;2024-01-30T02:21:42;16.25;;;11.43;;
49071;SDS011;74284;52.610;10.236;2024-01-30T02:24:08;17.13;;;11.05;;
49071;SDS011;74284;52.610;10.236;2024-01-30T02:26:34;17.55;;;11.95;;
49071;SDS011;74284;52.610;10.236;2024-01-30T02:28:59;15.70;;;11.32;;
49071;SDS011;74284;52.610;10.236;2024-01-30T02:31:25;16.27;;;11.68;;
49071;SDS011;74284;52.610;10.236;2024-01-30T02:33:51;16.58;;;12.00;;
49071;SDS011;74284;52.610;10.236;2024-01-30T02:36:16;16.47;;;11.73;;
49071;SDS011;74284;52.610;10.236;2024-01-30T02:38:41;18.35;;;12.05;;
49071;SDS011;74284;52.610;10.236;2024-01-30T02:41:07;18.47;;;12.50;;
49071;SDS011;74284;52.610;10.236;2024-01-30T02:43:32;18.23;;;12.37;;
49071;SDS011;74284;52.610;10.236;2024-01-30T02:45:57;18.63;;;11.85;;
49071;SDS011;74284;52.610;10.236;2024-01-30T02:48:24;20.02;;;13.07;;
49071;SDS011;74284;52.610;10.236;2024-01-30T02:50:50;18.65;;;12.63;;
49071;SDS011;74284;52.610;10.236;2024-01-30T02:53:15;18.40;;;12.17;;
49071;SDS011;74284;52.610;10.236;2024-01-30T02:55:40;18.55;;;12.20;;
49071;SDS011;74284;52.610;10.236;2024-01-30T02:58:06;17.77;;;12.70;;
49071;SDS011;74284;52.610;10.236;2024-01-30T03:00:31;17.05;;;12.13;;
49071;SDS011;74284;52.610;10.236;2024-01-30T03:02:57;19.10;;;12.07;;
49071;SDS011;74284;52.610;10.236;2024-01-30T03:05:22;18.80;;;12.23;;
49071;SDS011;74284;52.610;10.236;2024-01-30T03:07:47;20.43;;;12.73;;
49071;SDS011;74284;52.610;10.236;2024-01-30T03:10:13;16.80;;;11.82;;
49071;SDS011;74284;52.610;10.236;2024-01-30T03:12:38;17.57;;;12.27;;
49071;SDS011;74284;52.610;10.236;2024-01-30T03:15:03;18.90;;;12.23;;
49071;SDS011;74284;52.610;10.236;2024-01-30T03:17:29;18.35;;;12.40;;
49071;SDS011;74284;52.610;10.236;2024-01-30T03:19:54;18.15;;;12.00;;
49071;SDS011;74284;52.610;10.236;2024-01-30T03:22:19;27.07;;;12.07;;
49071;SDS011;74284;52.610;10.236;2024-01-30T03:24:45;17.97;;;11.70;;
49071;SDS011;74284;52.610;10.236;2024-01-30T03:27:10;20.17;;;12.63;;
49071;SDS011;74284;52.610;10.236;2024-01-30T03:29:35;17.92;;;11.93;;
49071;SDS011;74284;52.610;10.236;2024-01-30T03:32:01;19.83;;;13.07;;
49071;SDS011;74284;52.610;10.236;2024-01-30T03:34:26;19.60;;;12.95;;
49071;SDS011;74284;52.610;10.236;2024-01-30T03:36:51;18.58;;;12.57;;
49071;SDS011;74284;52.610;10.236;2024-01-30T03:39:17;18.33;;;12.53;;
49071;SDS011;74284;52.610;10.236;2024-01-30T03:41:42;21.10;;;12.90;;
49071;SDS011;74284;52.610;10.236;2024-01-30T03:44:09;20.50;;;12.32;;
49071;SDS011;74284;52.610;10.236;2024-01-30T03:46:34;18.67;;;12.20;;
49071;SDS011;74284;52.610;10.236;2024-01-30T03:49:00;15.82;;;11.68;;
49071;SDS011;74284;52.610;10.236;2024-01-30T03:51:25;17.90;;;12.45;;
49071;SDS011;74284;52.610;10.236;2024-01-30T03:53:50;19.27;;;12.43;;
49071;SDS011;74284;52.610;10.236;2024-01-30T03:56:16;18.30;;;12.15;;
49071;SDS011;74284;52.610;10.236;2024-01-30T03:58:41;18.73;;;12.38;;
49071;SDS011;74284;52.610;10.236;2024-01-30T04:01:07;17.33;;;11.80;;
49071;SDS011;74284;52.610;10.236;2024-01-30T04:03:32;17.17;;;12.57;;
49071;SDS011;74284;52.610;10.236;2024-01-30T04:05:58;18.63;;;13.18;;
49071;SDS011;74284;52.610;10.236;2024-01-30T04:08:23;18.48;;;12.27;;
49071;SDS011;74284;52.610;10.236;2024-01-30T04:10:48;19.97;;;13.23;;
49071;SDS011;74284;52.610;10.236;2024-01-30T04:13:13;17.55;;;11.90;;
49071;SDS011;74284;52.610;10.236;2024-01-30T04:15:39;21.80;;;13.10;;
49071;SDS011;74284;52.610;10.236;2024-01-30T04:18:04;19.33;;;13.05;;
49071;SDS011;74284;52.610;10.236;2024-01-30T04:20:30;19.25;;;12.43;;
49071;SDS011;74284;52.610;10.236;2024-01-30T04:22:55;17.90;;;12.05;;
49071;SDS011;74284;52.610;10.236;2024-01-30T04:25:21;18.88;;;12.35;;
49071;SDS011;74284;52.610;10.236;2024-01-30T04:27:46;23.40;;;13.30;;
49071;SDS011;74284;52.610;10.236;2024-01-30T04:30:11;19.92;;;13.00;;
49071;SDS011;74284;52.610;10.236;2024-01-30T04:32:37;17.83;;;12.82;;
49071;SDS011;74284;52.610;10.236;2024-01-30T04:35:03;20.33;;;12.73;;
49071;SDS011;74284;52.610;10.236;2024-01-30T04:37:28;19.52;;;11.73;;
49071;SDS011;74284;52.610;10.236;2024-01-30T04:39:54;16.25;;;11.82;;
49071;SDS011;74284;52.610;10.236;2024-01-30T04:42:19;19.13;;;13.15;;
49071;SDS011;74284;52.610;10.236;2024-01-30T04:44:45;18.88;;;12.25;;
49071;SDS011;74284;52.610;10.236;2024-01-30T04:47:10;19.63;;;12.70;;
49071;SDS011;74284;52.610;10.236;2024-01-30T04:49:38;20.02;;;11.70;;
49071;SDS011;74284;52.610;10.236;2024-01-30T04:52:04;18.40;;;12.02;;
49071;SDS011;74284;52.610;10.236;2024-01-30T04:54:29;19.58;;;12.80;;
49071;SDS011;74284;52.610;10.236;2024-01-30T04:56:55;18.87;;;12.70;;
49071;SDS011;74284;52.610;10.236;2024-01-30T04:59:20;16.80;;;12.57;;
49071;SDS011;74284;52.610;10.236;2024-01-30T05:01:45;17.90;;;11.68;;
49071;SDS011;74284;52.610;10.236;2024-01-30T05:04:11;17.63;;;12.33;;
49071;SDS011;74284;52.610;10.236;2024-01-30T05:06:36;16.48;;;12.27;;
49071;SDS011;74284;52.610;10.236;2024-01-30T05:09:02;16.55;;;11.57;;
49071;SDS011;74284;52.610;10.236;2024-01-30T05:11:29;17.58;;;11.82;;
49071;SDS011;74284;52.610;10.236;2024-01-30T05:13:55;19.45;;;12.80;;
49071;SDS011;74284;52.610;10.236;2024-01-30T05:16:20;16.98;;;11.07;;
49071;SDS011;74284;52.610;10.236;2024-01-30T05:18:45;16.98;;;11.88;;
49071;SDS011;74284;52.610;10.236;2024-01-30T05:21:11;18.73;;;12.43;;
49071;SDS011;74284;52.610;10.236;2024-01-30T05:23:36;17.42;;;12.00;;
49071;SDS011;74284;52.610;10.236;2024-01-30T05:26:02;20.13;;;12.27;;
49071;SDS011;74284;52.610;10.236;2024-01-30T05:28:28;18.75;;;12.40;;
49071;SDS011;74284;52.610;10.236;2024-01-30T05:30:54;17.52;;;11.60;;
49071;SDS011;74284;52.610;10.236;2024-01-30T05:33:19;18.07;;;11.43;;
49071;SDS011;74284;52.610;10.236;2024-01-30T05:35:45;16.88;;;11.57;;
49071;SDS011;74284;52.610;10.236;2024-01-30T05:38:11;18.42;;;11.60;;
49071;SDS011;74284;52.610;10.236;2024-01-30T05:40:36;16.08;;;11.48;;
49071;SDS011;74284;52.610;10.236;2024-01-30T05:43:01;16.30;;;11.20;;
49071;SDS011;74284;52.610;10.236;2024-01-30T05:45:27;19.08;;;11.90;;
49071;SDS011;74284;52.610;10.236;2024-01-30T05:47:53;17.42;;;11.15;;
49071;SDS011;74284;52.610;10.236;2024-01-30T05:50:21;17.35;;;12.15;;
49071;SDS011;74284;52.610;10.236;2024-01-30T05:52:48;18.02;;;11.38;;
49071;SDS011;74284;52.610;10.236;2024-01-30T05:55:13;20.65;;;12.57;;
49071;SDS011;74284;52.610;10.236;2024-01-30T05:57:39;19.50;;;12.77;;
49071;SDS011;74284;52.610;10.236;2024-01-30T06:00:05;21.00;;;13.05;;
49071;SDS011;74284;52.610;10.236;2024-01-30T06:02:31;21.20;;;13.20;;
49071;SDS011;74284;52.610;10.236;2024-01-30T06:04:56;17.65;;;12.20;;
49071;SDS011;74284;52.610;10.236;2024-01-30T06:07:21;18.25;;;12.07;;
49071;SDS011;74284;52.610;10.236;2024-01-30T06:09:47;24.38;;;13.05;;
49071;SDS011;74284;52.610;10.236;2024-01-30T06:12:12;20.83;;;12.57;;
49071;SDS011;74284;52.610;10.236;2024-01-30T06:14:38;17.60;;;11.73;;
49071;SDS011;74284;52.610;10.236;2024-01-30T06:17:03;19.73;;;12.73;;
49071;SDS011;74284;52.610;10.236;2024-01-30T06:19:29;20.23;;;12.75;;
49071;SDS011;74284;52.610;10.236;2024-01-30T06:21:55;18.67;;;12.87;;
49071;SDS011;74284;52.610;10.236;2024-01-30T06:24:20;22.17;;;13.43;;
49071;SDS011;74284;52.610;10.236;2024-01-30T06:26:45;20.00;;;12.65;;
49071;SDS011;74284;52.610;10.236;2024-01-30T06:29:11;18.50;;;12.40;;
49071;SDS011;74284;52.610;10.236;2024-01-30T06:31:39;18.02;;;12.25;;
49071;SDS011;74284;52.610;10.236;2024-01-30T06:34:10;21.95;;;12.45;;
49071;SDS011;74284;52.610;10.236;2024-01-30T06:36:37;20.80;;;13.10;;
49071;SDS011;74284;52.610;10.236;2024-01-30T06:39:03;23.52;;;13.85;;
49071;SDS011;74284;52.610;10.236;2024-01-30T06:41:28;17.23;;;12.35;;
49071;SDS011;74284;52.610;10.236;2024-01-30T06:43:54;21.77;;;13.75;;
49071;SDS011;74284;52.610;10.236;2024-01-30T06:46:20;18.92;;;12.70;;
49071;SDS011;74284;52.610;10.236;2024-01-30T06:48:45;24.00;;;13.77;;
49071;SDS011;74284;52.610;10.236;2024-01-30T06:51:11;18.97;;;12.33;;
49071;SDS011;74284;52.610;10.236;2024-01-30T06:53:37;19.23;;;13.00;;
49071;SDS011;74284;52.610;10.236;2024-01-30T06:56:02;26.45;;;13.65;;
49071;SDS011;74284;52.610;10.236;2024-01-30T06:58:28;18.20;;;12.70;;
49071;SDS011;74284;52.610;10.236;2024-01-30T07:00:54;19.90;;;12.95;;
49071;SDS011;74284;52.610;10.236;2024-01-30T07:03:19;17.85;;;12.45;;
49071;SDS011;74284;52.610;10.236;2024-01-30T07:05:45;18.38;;;12.65;;
49071;SDS011;74284;52.610;10.236;2024-01-30T07:08:10;19.37;;;12.90;;
49071;SDS011;74284;52.610;10.236;2024-01-30T07:10:35;20.00;;;12.73;;
49071;SDS011;74284;52.610;10.236;2024-01-30T07:13:01;19.13;;;12.70;;
49071;SDS011;74284;52.610;10.236;2024-01-30T07:15:26;20.75;;;13.30;;
49071;SDS011;74284;52.610;10.236;2024-01-30T07:17:51;22.63;;;14.02;;
49071;SDS011;74284;52.610;10.236;2024-01-30T07:20:17;23.93;;;13.60;;
49071;SDS011;74284;52.610;10.236;2024-01-30T07:22:45;18.20;;;12.43;;
49071;SDS011;74284;52.610;10.236;2024-01-30T07:25:10;22.38;;;13.95;;
49071;SDS011;74284;52.610;10.236;2024-01-30T07:27:36;19.75;;;13.20;;
49071;SDS011;74284;52.610;10.236;2024-01-30T07:30:01;19.15;;;12.50;;
49071;SDS011;74284;52.610;10.236;2024-01-30T07:32:27;22.60;;;13.77;;
49071;SDS011;74284;52.610;10.236;2024-01-30T07:34:52;18.10;;;13.07;;
49071;SDS011;74284;52.610;10.236;2024-01-30T07:37:17;20.67;;;13.85;;
49071;SDS011;74284;52.610;10.236;2024-01-30T07:39:43;24.63;;;14.18;;
49071;SDS011;74284;52.610;10.236;2024-01-30T07:42:08;20.97;;;13.80;;
49071;SDS011;74284;52.610;10.236;2024-01-30T07:44:33;24.85;;;15.52;;
49071;SDS011;74284;52.610;10.236;2024-01-30T07:46:59;26.02;;;13.45;;
49071;SDS011;74284;52.610;10.236;2024-01-30T07:49:24;22.42;;;14.23;;
49071;SDS011;74284;52.610;10.236;2024-01-30T07:51:50;21.92;;;13.85;;
49071;SDS011;74284;52.610;10.236;2024-01-30T07:54:15;22.45;;;14.60;;
49071;SDS011;74284;52.610;10.236;2024-01-30T07:56:41;23.90;;;14.40;;
49071;SDS011;74284;52.610;10.236;2024-01-30T07:59:09;21.58;;;14.63;;
49071;SDS011;74284;52.610;10.236;2024-01-30T08:01:35;23.33;;;15.32;;
49071;SDS011;74284;52.610;10.236;2024-01-30T08:04:00;23.27;;;15.63;;
49071;SDS011;74284;52.610;10.236;2024-01-30T08:06:25;23.13;;;15.37;;
49071;SDS011;74284;52.610;10.236;2024-01-30T08:08:52;25.40;;;15.77;;
49071;SDS011;74284;52.610;10.236;2024-01-30T08:11:19;24.95;;;15.88;;
49071;SDS011;74284;52.610;10.236;2024-01-30T08:13:45;24.27;;;15.50;;
49071;SDS011;74284;52.610;10.236;2024-01-30T08:16:10;29.98;;;17.33;;
49071;SDS011;74284;52.610;10.236;2024-01-30T08:18:36;24.42;;;16.20;;
49071;SDS011;74284;52.610;10.236;2024-01-30T08:21:01;26.20;;;16.02;;
49071;SDS011;74284;52.610;10.236;2024-01-30T08:23:26;26.67;;;17.13;;
49071;SDS011;74284;52.610;10.236;2024-01-30T08:25:52;24.13;;;15.67;;
49071;SDS011;74284;52.610;10.236;2024-01-30T08:28:17;25.60;;;16.23;;
49071;SDS011;74284;52.610;10.236;2024-01-30T08:30:42;24.88;;;16.67;;
49071;SDS011;74284;52.610;10.236;2024-01-30T08:33:07;26.05;;;16.80;;
49071;SDS011;74284;52.610;10.236;2024-01-30T08:35:33;28.43;;;15.87;;
49071;SDS011;74284;52.610;10.236;2024-01-30T08:37:59;28.45;;;16.98;;
49071;SDS011;74284;52.610;10.236;2024-01-30T08:42:50;27.88;;;17.00;;
49071;SDS011;74284;52.610;10.236;2024-01-30T08:45:15;26.63;;;17.50;;
49071;SDS011;74284;52.610;10.236;2024-01-30T08:47:40;29.67;;;18.92;;
49071;SDS011;74284;52.610;10.236;2024-01-30T08:50:06;28.40;;;17.90;;
49071;SDS011;74284;52.610;10.236;2024-01-30T08:52:32;32.45;;;18.70;;
49071;SDS011;74284;52.610;10.236;2024-01-30T08:54:59;28.85;;;19.08;;
49071;SDS011;74284;52.610;10.236;2024-01-30T08:57:24;31.83;;;20.42;;
49071;SDS011;74284;52.610;10.236;2024-01-30T08:59:53;29.63;;;19.88;;
49071;SDS011;74284;52.610;10.236;2024-01-30T09:02:18;30.88;;;18.63;;
49071;SDS011;74284;52.610;10.236;2024-01-30T09:04:44;27.77;;;18.60;;
49071;SDS011;74284;52.610;10.236;2024-01-30T09:07:09;34.40;;;19.83;;
49071;SDS011;74284;52.610;10.236;2024-01-30T09:09:35;28.23;;;18.27;;
49071;SDS011;74284;52.610;10.236;2024-01-30T09:12:00;25.75;;;18.27;;
49071;SDS011;74284;52.610;10.236;2024-01-30T09:14:31;27.23;;;18.80;;
49071;SDS011;74284;52.610;10.236;2024-01-30T09:16:57;26.58;;;18.38;;
49071;SDS011;74284;52.610;10.236;2024-01-30T09:19:22;29.20;;;17.73;;
49071;SDS011;74284;52.610;10.236;2024-01-30T09:21:47;24.65;;;16.90;;
49071;SDS011;74284;52.610;10.236;2024-01-30T09:24:13;25.63;;;17.13;;
49071;SDS011;74284;52.610;10.236;2024-01-30T09:26:38;27.83;;;16.88;;
49071;SDS011;74284;52.610;10.236;2024-01-30T09:29:03;27.33;;;16.73;;
49071;SDS011;74284;52.610;10.236;2024-01-30T09:31:29;24.60;;;15.25;;
49071;SDS011;74284;52.610;10.236;2024-01-30T09:33:54;25.20;;;16.47;;
49071;SDS011;74284;52.610;10.236;2024-01-30T09:36:20;29.38;;;16.05;;
49071;SDS011;74284;52.610;10.236;2024-01-30T09:38:45;20.02;;;14.18;;
49071;SDS011;74284;52.610;10.236;2024-01-30T09:41:10;22.00;;;14.10;;
49071;SDS011;74284;52.610;10.236;2024-01-30T09:43:36;22.35;;;14.32;;
49071;SDS011;74284;52.610;10.236;2024-01-30T09:46:04;21.20;;;14.15;;
49071;SDS011;74284;52.610;10.236;2024-01-30T09:48:30;19.77;;;13.65;;
49071;SDS011;74284;52.610;10.236;2024-01-30T09:50:57;20.55;;;13.75;;
49071;SDS011;74284;52.610;10.236;2024-01-30T09:53:23;17.27;;;12.95;;
49071;SDS011;74284;52.610;10.236;2024-01-30T09:55:50;17.52;;;13.43;;
49071;SDS011;74284;52.610;10.236;2024-01-30T09:58:16;17.92;;;12.50;;
49071;SDS011;74284;52.610;10.236;2024-01-30T10:00:41;16.83;;;12.77;;
49071;SDS011;74284;52.610;10.236;2024-01-30T10:05:33;16.80;;;12.32;;
49071;SDS011;74284;52.610;10.236;2024-01-30T10:08:05;18.38;;;11.75;;
49071;SDS011;74284;52.610;10.236;2024-01-30T10:10:31;16.92;;;12.23;;
49071;SDS011;74284;52.610;10.236;2024-01-30T10:12:56;17.90;;;11.45;;
49071;SDS011;74284;52.610;10.236;2024-01-30T10:15:21;15.73;;;10.77;;
49071;SDS011;74284;52.610;10.236;2024-01-30T10:17:47;15.60;;;11.45;;
49071;SDS011;74284;52.610;10.236;2024-01-30T10:20:12;15.38;;;11.50;;
49071;SDS011;74284;52.610;10.236;2024-01-30T10:22:39;15.48;;;11.27;;
49071;SDS011;74284;52.610;10.236;2024-01-30T10:25:07;15.65;;;10.88;;
49071;SDS011;74284;52.610;10.236;2024-01-30T10:27:32;23.45;;;10.98;;
49071;SDS011;74284;52.610;10.236;2024-01-30T10:29:58;16.95;;;11.02;;
49071;SDS011;74284;52.610;10.236;2024-01-30T10:32:23;15.65;;;10.60;;
49071;SDS011;74284;52.610;10.236;2024-01-30T10:34:49;16.95;;;10.98;;
49071;SDS011;74284;52.610;10.236;2024-01-30T10:37:15;18.27;;;10.03;;
49071;SDS011;74284;52.610;10.236;2024-01-30T10:39:42;16.85;;;10.45;;
49071;SDS011;74284;52.610;10.236;2024-01-30T10:42:12;13.50;;;9.25;;
49071;SDS011;74284;52.610;10.236;2024-01-30T10:45:00;14.63;;;10.10;;
49071;SDS011;74284;52.610;10.236;2024-01-30T10:47:30;13.50;;;10.15;;
49071;SDS011;74284;52.610;10.236;2024-01-30T10:49:55;14.65;;;9.13;;
49071;SDS011;74284;52.610;10.236;2024-01-30T10:52:24;14.25;;;10.02;;
49071;SDS011;74284;52.610;10.236;2024-01-30T10:54:51;13.88;;;9.10;;
49071;SDS011;74284;52.610;10.236;2024-01-30T10:57:17;13.43;;;9.38;;
49071;SDS011;74284;52.610;10.236;2024-01-30T10:59:43;14.98;;;9.07;;
49071;SDS011;74284;52.610;10.236;2024-01-30T11:02:10;11.85;;;8.70;;
49071;SDS011;74284;52.610;10.236;2024-01-30T11:04:36;12.73;;;8.90;;
49071;SDS011;74284;52.610;10.236;2024-01-30T11:07:13;12.38;;;8.98;;
49071;SDS011;74284;52.610;10.236;2024-01-30T11:09:40;12.25;;;8.90;;
49071;SDS011;74284;52.610;10.236;2024-01-30T11:12:11;13.88;;;9.43;;
49071;SDS011;74284;52.610;10.236;2024-01-30T11:14:37;13.43;;;8.60;;
49071;SDS011;74284;52.610;10.236;2024-01-30T11:17:05;14.18;;;8.88;;
49071;SDS011;74284;52.610;10.236;2024-01-30T11:19:30;11.85;;;8.02;;
49071;SDS011;74284;52.610;10.236;2024-01-30T11:21:56;12.70;;;9.00;;
49071;SDS011;74284;52.610;10.236;2024-01-30T11:24:22;12.73;;;9.02;;
49071;SDS011;74284;52.610;10.236;2024-01-30T11:26:49;13.38;;;8.20;;
49071;SDS011;74284;52.610;10.236;2024-01-30T11:29:18;12.82;;;8.98;;
49071;SDS011;74284;52.610;10.236;2024-01-30T11:31:53;11.77;;;8.38;;
49071;SDS011;74284;52.610;10.236;2024-01-30T11:34:20;11.60;;;8.57;;
49071;SDS011;74284;52.610;10.236;2024-01-30T11:36:48;11.05;;;8.13;;
49071;SDS011;74284;52.610;10.236;2024-01-30T11:39:23;14.45;;;9.13;;
49071;SDS011;74284;52.610;10.236;2024-01-30T11:41:50;12.68;;;8.10;;
49071;SDS011;74284;52.610;10.236;2024-01-30T11:44:16;11.27;;;8.38;;
49071;SDS011;74284;52.610;10.236;2024-01-30T11:46:42;11.07;;;8.38;;
49071;SDS011;74284;52.610;10.236;2024-01-30T11:49:07;15.73;;;8.88;;
49071;SDS011;74284;52.610;10.236;2024-01-30T11:51:32;10.32;;;8.18;;
49071;SDS011;74284;52.610;10.236;2024-01-30T11:53:58;15.23;;;9.02;;
49071;SDS011;74284;52.610;10.236;2024-01-30T11:56:23;12.18;;;8.65;;
49071;SDS011;74284;52.610;10.236;2024-01-30T11:58:49;11.32;;;8.13;;
49071;SDS011;74284;52.610;10.236;2024-01-30T12:01:16;14.32;;;8.68;;
49071;SDS011;74284;52.610;10.236;2024-01-30T12:03:42;11.48;;;8.45;;
49071;SDS011;74284;52.610;10.236;2024-01-30T12:06:07;13.43;;;8.50;;
49071;SDS011;74284;52.610;10.236;2024-01-30T12:08:33;12.75;;;8.30;;
49071;SDS011;74284;52.610;10.236;2024-01-30T12:10:58;12.40;;;8.57;;
49071;SDS011;74284;52.610;10.236;2024-01-30T12:13:26;13.18;;;8.13;;
49071;SDS011;74284;52.610;10.236;2024-01-30T12:15:51;12.32;;;8.10;;
49071;SDS011;74284;52.610;10.236;2024-01-30T12:18:20;11.50;;;7.78;;
49071;SDS011;74284;52.610;10.236;2024-01-30T12:20:45;13.40;;;8.25;;
49071;SDS011;74284;52.610;10.236;2024-01-30T12:23:11;13.35;;;7.93;;
49071;SDS011;74284;52.610;10.236;2024-01-30T12:25:37;10.98;;;8.13;;
49071;SDS011;74284;52.610;10.236;2024-01-30T12:28:03;11.32;;;8.05;;
49071;SDS011;74284;52.610;10.236;2024-01-30T12:30:29;13.35;;;8.38;;
49071;SDS011;74284;52.610;10.236;2024-01-30T12:32:54;10.95;;;8.43;;
49071;SDS011;74284;52.610;10.236;2024-01-30T12:35:20;15.13;;;8.75;;
49071;SDS011;74284;52.610;10.236;2024-01-30T12:37:46;14.98;;;9.02;;
49071;SDS011;74284;52.610;10.236;2024-01-30T12:40:13;12.90;;;8.80;;
49071;SDS011;74284;52.610;10.236;2024-01-30T12:42:40;11.80;;;8.80;;
49071;SDS011;74284;52.610;10.236;2024-01-30T12:45:07;15.95;;;8.18;;
49071;SDS011;74284;52.610;10.236;2024-01-30T12:47:33;10.75;;;8.32;;
49071;SDS011;74284;52.610;10.236;2024-01-30T12:49:59;11.70;;;8.85;;
49071;SDS011;74284;52.610;10.236;2024-01-30T12:52:24;12.68;;;8.40;;
49071;SDS011;74284;52.610;10.236;2024-01-30T12:54:50;12.65;;;9.00;;
49071;SDS011;74284;52.610;10.236;2024-01-30T12:59:42;14.35;;;9.20;;
49071;SDS011;74284;52.610;10.236;2024-01-30T13:02:08;12.63;;;8.40;;
49071;SDS011;74284;52.610;10.236;2024-01-30T13:06:59;12.30;;;8.10;;
49071;SDS011;74284;52.610;10.236;2024-01-30T13:11:50;12.30;;;7.93;;
49071;SDS011;74284;52.610;10.236;2024-01-30T13:16:41;13.05;;;7.95;;
49071;SDS011;74284;52.610;10.236;2024-01-30T13:21:32;15.05;;;8.75;;
49071;SDS011;74284;52.610;10.236;2024-01-30T13:23:57;11.88;;;8.15;;
49071;SDS011;74284;52.610;10.236;2024-01-30T13:28:48;11.52;;;8.02;;
49071;SDS011;74284;52.610;10.236;2024-01-30T13:31:14;10.35;;;8.02;;
49071;SDS011;74284;52.610;10.236;2024-01-30T13:36:05;14.32;;;8.80;;
49071;SDS011;74284;52.610;10.236;2024-01-30T13:38:31;12.88;;;8.13;;
49071;SDS011;74284;52.610;10.236;2024-01-30T13:43:22;13.20;;;8.13;;
49071;SDS011;74284;52.610;10.236;2024-01-30T13:48:12;12.80;;;8.23;;
49071;SDS011;74284;52.610;10.236;2024-01-30T13:53:03;11.85;;;8.35;;
49071;SDS011;74284;52.610;10.236;2024-01-30T13:55:31;13.07;;;8.45;;
49071;SDS011;74284;52.610;10.236;2024-01-30T14:00:22;12.80;;;7.93;;
49071;SDS011;74284;52.610;10.236;2024-01-30T14:02:48;12.52;;;8.40;;
49071;SDS011;74284;52.610;10.236;2024-01-30T14:05:13;11.63;;;7.35;;
49071;SDS011;74284;52.610;10.236;2024-01-30T14:10:05;12.35;;;8.70;;
49071;SDS011;74284;52.610;10.236;2024-01-30T14:12:31;11.65;;;8.25;;
49071;SDS011;74284;52.610;10.236;2024-01-30T14:17:21;12.40;;;8.80;;
49071;SDS011;74284;52.610;10.236;2024-01-30T14:19:47;13.07;;;8.18;;
49071;SDS011;74284;52.610;10.236;2024-01-30T14:22:12;12.70;;;9.00;;
49071;SDS011;74284;52.610;10.236;2024-01-30T14:24:37;13.73;;;9.18;;
49071;SDS011;74284;52.610;10.236;2024-01-30T14:27:02;12.05;;;8.55;;
49071;SDS011;74284;52.610;10.236;2024-01-30T14:29:28;11.40;;;8.52;;
49071;SDS011;74284;52.610;10.236;2024-01-30T14:34:20;13.98;;;8.55;;
49071;SDS011;74284;52.610;10.236;2024-01-30T14:39:11;14.35;;;8.98;;
49071;SDS011;74284;52.610;10.236;2024-01-30T14:44:01;13.13;;;8.68;;
49071;SDS011;74284;52.610;10.236;2024-01-30T14:46:27;14.20;;;8.68;;
49071;SDS011;74284;52.610;10.236;2024-01-30T14:48:53;13.27;;;8.10;;
49071;SDS011;74284;52.610;10.236;2024-01-30T14:51:19;13.35;;;8.57;;